Time;durP1;ratioP1;P1;durP2;ratioP2;P2;SDS_P1;SDS_P2;PMS_P1;PMS_P2;Temp;Humidity;BMP_temperature;BMP_pressure;BME280_temperature;BME280_humidity;BME280_pressure;Samples;Min_cycle;Max_cycle;Signal;HPM_P1;HPM_P2
2021/01/08 00:00:24;;;;;;;6.40;2.05;;;5.60;99.90;;;;;;5013890;28;20220;-79
2021/01/08 00:02:50;;;;;;;6.18;1.92;;;5.60;99.90;;;;;;5011351;28;20220;-78
2021/01/08 00:05:17;;;;;;;9.77;2.13;;;5.60;99.90;;;;;;5011765;28;20212;-78
2021/01/08 00:07:43;;;;;;;3.92;1.58;;;5.60;99.90;;;;;;5011102;28;21158;-79
2021/01/08 00:10:11;;;;;;;5.20;1.83;;;5.60;99.90;;;;;;5012979;28;20251;-78
2021/01/08 00:12:38;;;;;;;2.63;1.50;;;5.60;99.90;;;;;;5010763;28;20200;-80
2021/01/08 00:15:05;;;;;;;11.23;1.50;;;5.50;99.90;;;;;;5011443;28;20201;-78
2021/01/08 00:17:32;;;;;;;5.65;1.58;;;5.50;99.90;;;;;;5011352;28;20204;-79
2021/01/08 00:19:59;;;;;;;4.72;1.17;;;5.50;99.90;;;;;;5012132;28;20209;-78
2021/01/08 00:22:26;;;;;;;5.00;0.80;;;5.50;99.90;;;;;;5011673;28;20708;-79
2021/01/08 00:24:53;;;;;;;4.00;1.10;;;5.50;99.90;;;;;;5011205;28;20217;-78
2021/01/08 00:27:20;;;;;;;10.45;1.10;;;5.50;99.90;;;;;;5011441;28;20208;-78
2021/01/08 00:29:47;;;;;;;1.75;1.00;;;5.50;99.90;;;;;;5011197;28;20205;-77
2021/01/08 00:32:13;;;;;;;3.53;1.10;;;5.50;99.90;;;;;;5012801;28;20193;-76
2021/01/08 00:34:40;;;;;;;1.20;0.77;;;5.50;99.90;;;;;;5011120;28;20201;-77
2021/01/08 00:37:06;;;;;;;2.05;1.10;;;5.50;99.90;;;;;;5010935;28;20331;-78
2021/01/08 00:39:33;;;;;;;6.90;1.38;;;5.50;99.90;;;;;;5010730;28;20223;-78
2021/01/08 00:42:01;;;;;;;2.10;1.10;;;5.50;99.90;;;;;;5010567;28;20204;-78
2021/01/08 00:44:28;;;;;;;5.20;1.30;;;5.50;99.90;;;;;;5009622;28;20220;-78
2021/01/08 00:46:54;;;;;;;1.23;0.90;;;5.50;99.90;;;;;;5011679;28;20203;-78
2021/01/08 00:49:21;;;;;;;3.70;1.20;;;5.50;99.90;;;;;;5009983;28;20201;-79
2021/01/08 00:51:48;;;;;;;3.40;1.30;;;5.50;99.90;;;;;;5009687;28;20693;-78
2021/01/08 00:54:16;;;;;;;8.68;1.33;;;5.50;99.90;;;;;;5009081;28;20205;-78
2021/01/08 00:56:52;;;;;;;2.30;1.10;;;5.50;99.90;;;;;;5027502;28;20358;-78
2021/01/08 00:59:32;;;;;;;5.80;1.35;;;5.50;99.90;;;;;;5022901;28;20211;-78
2021/01/08 01:01:58;;;;;;;5.00;1.38;;;5.50;99.90;;;;;;5011358;28;20204;-79
2021/01/08 01:04:24;;;;;;;6.50;1.30;;;5.50;99.90;;;;;;5011007;28;20272;-79
2021/01/08 01:06:51;;;;;;;2.97;1.30;;;5.50;99.90;;;;;;5012016;28;20618;-79
2021/01/08 01:09:17;;;;;;;2.00;1.10;;;5.50;99.90;;;;;;5010566;28;20212;-78
2021/01/08 01:11:43;;;;;;;4.05;1.05;;;5.60;99.90;;;;;;5012658;28;20208;-78
2021/01/08 01:14:10;;;;;;;5.72;1.60;;;5.60;99.90;;;;;;5008941;28;20681;-78
2021/01/08 01:16:37;;;;;;;4.10;1.20;;;5.60;99.90;;;;;;5010629;28;20212;-78
2021/01/08 01:19:04;;;;;;;2.20;1.20;;;5.60;99.90;;;;;;5011113;28;20204;-79
2021/01/08 01:21:30;;;;;;;1.95;1.30;;;5.60;99.90;;;;;;5009556;28;20204;-79
2021/01/08 01:23:56;;;;;;;3.42;1.13;;;5.60;99.90;;;;;;5008955;28;20576;-78
2021/01/08 01:26:23;;;;;;;2.97;1.30;;;5.60;99.90;;;;;;5009962;28;20223;-78
2021/01/08 01:28:50;;;;;;;6.32;1.20;;;5.60;99.90;;;;;;5009968;28;20200;-78
2021/01/08 01:31:16;;;;;;;2.35;1.10;;;5.60;99.90;;;;;;5009997;28;20203;-78
2021/01/08 01:33:43;;;;;;;6.00;1.23;;;5.60;99.90;;;;;;5009446;28;20697;-77
2021/01/08 01:36:10;;;;;;;1.98;1.08;;;5.60;99.90;;;;;;5011031;28;20189;-78
2021/01/08 01:38:37;;;;;;;6.20;1.17;;;5.50;99.90;;;;;;5005893;28;20196;-79
2021/01/08 01:41:04;;;;;;;4.38;0.82;;;5.50;99.90;;;;;;5009664;28;20208;-78
2021/01/08 01:43:30;;;;;;;5.00;0.80;;;5.50;99.90;;;;;;5008190;28;20263;-78
2021/01/08 01:45:57;;;;;;;1.88;0.80;;;5.50;99.90;;;;;;5011332;28;20262;-78
2021/01/08 01:48:23;;;;;;;1.75;1.00;;;5.40;99.90;;;;;;5004180;28;20212;-78
2021/01/08 01:50:52;;;;;;;3.10;0.82;;;5.50;99.90;;;;;;5010880;28;20654;-78
2021/01/08 01:53:18;;;;;;;8.80;1.00;;;5.50;99.90;;;;;;5005818;28;22171;-77
2021/01/08 01:55:46;;;;;;;1.45;0.82;;;5.40;99.90;;;;;;5009587;28;20280;-78
2021/01/08 01:58:13;;;;;;;1.38;0.93;;;5.40;99.90;;;;;;5006075;28;20200;-78
2021/01/08 02:00:39;;;;;;;2.15;1.20;;;5.40;99.90;;;;;;5010849;28;20193;-79
2021/01/08 02:03:10;;;;;;;1.13;0.88;;;5.40;99.90;;;;;;5009598;28;20656;-77
2021/01/08 02:05:38;;;;;;;4.20;1.25;;;5.40;99.90;;;;;;5010552;28;20278;-77
2021/01/08 02:08:10;;;;;;;1.20;0.90;;;5.40;99.90;;;;;;5009568;28;20287;-77
2021/01/08 02:10:41;;;;;;;2.67;1.08;;;5.40;99.90;;;;;;5009775;28;20208;-78
2021/01/08 02:13:12;;;;;;;5.97;1.00;;;5.40;99.90;;;;;;5008686;28;20570;-77
2021/01/08 02:15:38;;;;;;;1.10;1.00;;;5.40;99.90;;;;;;5010625;28;20211;-77
2021/01/08 02:18:05;;;;;;;5.38;1.20;;;5.40;99.90;;;;;;5009711;28;20204;-77
2021/01/08 02:20:33;;;;;;;8.05;1.30;;;5.40;99.90;;;;;;5010206;28;20208;-77
2021/01/08 02:23:06;;;;;;;6.20;1.40;;;5.40;99.90;;;;;;5010533;28;20193;-78
2021/01/08 02:25:35;;;;;;;4.93;1.13;;;5.40;99.90;;;;;;5009030;28;20703;-77
2021/01/08 02:28:20;;;;;;;2.67;1.15;;;5.40;99.90;;;;;;5008797;28;20204;-78
2021/01/08 02:30:47;;;;;;;5.25;1.30;;;5.40;99.90;;;;;;5006720;28;20208;-77
2021/01/08 02:33:14;;;;;;;5.35;1.40;;;5.50;99.90;;;;;;5008192;28;20696;-77
2021/01/08 02:35:42;;;;;;;8.18;1.48;;;5.50;99.90;;;;;;5009374;28;20205;-78
2021/01/08 02:38:11;;;;;;;4.88;1.35;;;5.50;99.90;;;;;;5010101;28;20200;-76
2021/01/08 02:40:38;;;;;;;4.22;1.42;;;5.50;99.90;;;;;;5011183;28;20200;-77
2021/01/08 02:43:06;;;;;;;3.60;1.58;;;5.50;99.90;;;;;;5008507;28;20204;-77
2021/01/08 02:45:33;;;;;;;8.00;2.70;;;5.50;99.90;;;;;;5010649;28;20758;-77
2021/01/08 02:48:00;;;;;;;15.55;3.08;;;5.50;99.90;;;;;;5007590;28;20259;-79
2021/01/08 02:50:27;;;;;;;6.05;3.00;;;5.50;99.90;;;;;;5010367;28;20207;-76
2021/01/08 02:52:58;;;;;;;8.45;3.15;;;5.60;99.90;;;;;;5008262;28;20196;-77
2021/01/08 02:55:29;;;;;;;5.78;2.58;;;5.60;99.90;;;;;;5013363;28;20279;-79
2021/01/08 02:57:57;;;;;;;4.15;2.60;;;5.60;99.90;;;;;;5012689;28;20207;-74
2021/01/08 03:00:24;;;;;;;6.65;3.15;;;5.60;99.90;;;;;;5011515;28;20205;-77
2021/01/08 03:02:51;;;;;;;5.45;2.90;;;5.60;99.90;;;;;;5010797;28;20588;-77
2021/01/08 03:05:19;;;;;;;6.47;2.70;;;5.60;99.90;;;;;;5013392;28;20223;-78
2021/01/08 03:07:46;;;;;;;7.30;2.80;;;5.70;99.90;;;;;;5011189;28;20583;-77
2021/01/08 03:10:13;;;;;;;7.18;3.13;;;5.70;99.90;;;;;;5013695;28;20661;-78
2021/01/08 03:12:39;;;;;;;9.07;3.15;;;5.70;99.90;;;;;;5013039;28;20212;-77
2021/01/08 03:15:11;;;;;;;10.73;3.70;;;5.70;99.90;;;;;;5012423;28;20247;-77
2021/01/08 03:17:37;;;;;;;9.05;3.42;;;5.70;99.90;;;;;;5012349;28;20224;-77
2021/01/08 03:20:04;;;;;;;5.85;3.00;;;5.70;99.90;;;;;;5013279;28;20209;-76
2021/01/08 03:22:30;;;;;;;5.70;3.00;;;5.70;99.90;;;;;;5012236;28;20255;-76
2021/01/08 03:24:57;;;;;;;16.38;3.47;;;5.70;99.90;;;;;;5011346;28;20239;-76
2021/01/08 03:27:23;;;;;;;7.13;3.10;;;5.70;99.90;;;;;;5010276;28;20204;-77
2021/01/08 03:29:49;;;;;;;11.32;3.47;;;5.70;99.90;;;;;;5011666;28;20208;-77
2021/01/08 03:32:16;;;;;;;5.97;3.17;;;5.70;99.90;;;;;;5013092;28;20201;-76
2021/01/08 03:34:43;;;;;;;12.02;2.85;;;5.70;99.90;;;;;;5008690;28;20239;-76
2021/01/08 03:37:09;;;;;;;6.20;2.50;;;5.70;99.90;;;;;;5010692;28;20216;-77
2021/01/08 03:39:35;;;;;;;4.55;1.77;;;5.70;99.90;;;;;;5010606;28;20220;-76
2021/01/08 03:42:02;;;;;;;9.50;2.20;;;5.70;99.90;;;;;;5012228;28;20200;-76
2021/01/08 03:44:28;;;;;;;5.75;2.28;;;5.70;99.90;;;;;;5011192;28;20534;-77
2021/01/08 03:46:54;;;;;;;3.38;2.08;;;5.70;99.90;;;;;;5012701;28;20216;-76
2021/01/08 03:49:21;;;;;;;4.43;2.10;;;5.70;99.90;;;;;;5008948;28;20751;-77
2021/01/08 03:51:48;;;;;;;5.07;1.92;;;5.70;99.90;;;;;;5010193;28;20228;-77
2021/01/08 03:54:14;;;;;;;4.45;2.00;;;5.70;99.90;;;;;;5011340;28;20255;-76
2021/01/08 03:56:41;;;;;;;4.63;1.70;;;5.70;99.90;;;;;;5012098;28;20200;-77
2021/01/08 03:59:07;;;;;;;7.80;2.20;;;5.70;99.90;;;;;;5012239;28;20201;-77
2021/01/08 04:01:33;;;;;;;4.25;1.60;;;5.70;99.90;;;;;;5009567;28;20255;-77
2021/01/08 04:04:00;;;;;;;4.13;1.92;;;5.70;99.90;;;;;;5010328;28;20669;-77
2021/01/08 04:06:27;;;;;;;3.42;1.83;;;5.70;99.90;;;;;;5011658;28;20286;-76
2021/01/08 04:08:55;;;;;;;6.68;2.20;;;5.70;99.90;;;;;;5011835;28;20213;-77
2021/01/08 04:11:21;;;;;;;5.47;1.80;;;5.70;99.90;;;;;;5010293;28;20196;-76
2021/01/08 04:13:47;;;;;;;3.53;1.90;;;5.70;99.90;;;;;;5010001;28;20208;-76
2021/01/08 04:16:14;;;;;;;5.68;1.90;;;5.70;99.90;;;;;;5012291;28;20219;-76
2021/01/08 04:18:40;;;;;;;3.45;1.67;;;5.70;99.90;;;;;;5011228;28;20665;-76
2021/01/08 04:21:06;;;;;;;4.32;1.48;;;5.70;99.90;;;;;;5012278;28;20211;-76
2021/01/08 04:23:33;;;;;;;7.35;1.55;;;5.70;99.90;;;;;;5010892;28;20219;-77
2021/01/08 04:26:00;;;;;;;4.47;1.73;;;5.70;99.90;;;;;;5010048;28;20220;-77
2021/01/08 04:28:26;;;;;;;3.50;1.90;;;5.70;99.90;;;;;;5008746;28;20204;-76
2021/01/08 04:30:52;;;;;;;7.13;1.80;;;5.70;99.90;;;;;;5012049;28;20259;-77
2021/01/08 04:33:19;;;;;;;3.40;1.63;;;5.70;99.90;;;;;;5010773;28;20960;-78
2021/01/08 04:35:45;;;;;;;4.05;1.50;;;5.70;99.90;;;;;;5010502;28;20203;-78
2021/01/08 04:38:11;;;;;;;2.55;1.65;;;5.70;99.90;;;;;;5009946;28;20212;-77
2021/01/08 04:40:38;;;;;;;5.22;1.60;;;5.70;99.90;;;;;;5011685;28;20613;-77
2021/01/08 04:43:05;;;;;;;6.43;1.77;;;5.60;99.90;;;;;;5009495;28;20208;-78
2021/01/08 04:45:31;;;;;;;2.35;1.45;;;5.70;99.90;;;;;;5011674;28;20220;-77
2021/01/08 04:48:00;;;;;;;3.42;1.60;;;5.60;99.90;;;;;;5009169;28;20684;-78
2021/01/08 04:50:27;;;;;;;4.25;1.95;;;5.70;99.90;;;;;;5011638;28;20255;-77
2021/01/08 04:52:54;;;;;;;14.80;6.38;;;5.60;99.90;;;;;;5010316;28;20193;-78
2021/01/08 04:55:21;;;;;;;5.68;2.92;;;5.60;99.90;;;;;;5011410;28;20255;-77
2021/01/08 04:57:52;;;;;;;4.97;2.05;;;5.60;99.90;;;;;;5008652;28;20212;-77
2021/01/08 05:00:20;;;;;;;3.28;1.80;;;5.60;99.90;;;;;;5009086;28;21072;-76
2021/01/08 05:02:47;;;;;;;1.75;1.25;;;5.60;99.90;;;;;;5010160;28;20201;-78
2021/01/08 05:05:14;;;;;;;3.95;1.30;;;5.60;99.90;;;;;;5011220;28;20205;-77
2021/01/08 05:07:40;;;;;;;2.65;1.35;;;5.60;99.90;;;;;;5010300;28;20201;-77
2021/01/08 05:10:08;;;;;;;3.03;1.67;;;5.60;99.90;;;;;;5009431;28;20211;-76
2021/01/08 05:12:38;;;;;;;3.42;1.35;;;5.60;99.90;;;;;;5009852;28;20211;-76
2021/01/08 05:15:09;;;;;;;2.20;1.42;;;5.70;99.90;;;;;;5011298;28;20761;-76
2021/01/08 05:17:35;;;;;;;2.22;1.58;;;5.60;99.90;;;;;;5008844;28;20201;-76
2021/01/08 05:20:02;;;;;;;2.55;1.60;;;5.70;99.90;;;;;;5010726;28;20234;-76
2021/01/08 05:22:29;;;;;;;6.15;1.30;;;5.60;99.90;;;;;;5008617;28;20215;-77
2021/01/08 05:25:01;;;;;;;2.72;1.42;;;5.70;99.90;;;;;;5009616;28;20230;-76
2021/01/08 05:27:28;;;;;;;2.55;1.73;;;5.70;99.90;;;;;;5008753;28;20209;-78
2021/01/08 05:29:54;;;;;;;3.35;1.40;;;5.70;99.90;;;;;;5011210;28;20199;-76
2021/01/08 05:32:23;;;;;;;4.22;1.63;;;5.70;99.90;;;;;;5010728;28;20197;-77
2021/01/08 05:34:50;;;;;;;4.38;2.60;;;5.70;99.90;;;;;;5008803;28;20224;-77
2021/01/08 05:37:17;;;;;;;6.32;1.95;;;5.70;99.90;;;;;;5009654;28;20207;-77
2021/01/08 05:39:45;;;;;;;4.38;1.48;;;5.70;99.90;;;;;;5009844;28;20910;-77
2021/01/08 05:42:12;;;;;;;3.30;1.80;;;5.70;99.90;;;;;;5009865;28;20660;-76
2021/01/08 05:44:39;;;;;;;2.15;1.60;;;5.60;99.90;;;;;;5008414;28;20247;-77
2021/01/08 05:47:06;;;;;;;1.75;1.60;;;5.70;99.90;;;;;;5010104;28;20205;-77
2021/01/08 05:49:36;;;;;;;1.65;1.20;;;5.70;99.90;;;;;;5009888;28;20197;-77
2021/01/08 05:52:03;;;;;;;3.58;1.27;;;5.70;99.90;;;;;;5008716;28;20205;-76
2021/01/08 05:54:29;;;;;;;2.33;1.23;;;5.60;99.90;;;;;;5006006;28;20743;-76
2021/01/08 05:56:55;;;;;;;2.53;1.25;;;5.70;99.90;;;;;;5006831;28;20707;-77
2021/01/08 05:59:25;;;;;;;2.58;1.13;;;5.70;99.90;;;;;;5009324;28;20610;-78
2021/01/08 06:01:56;;;;;;;2.13;1.20;;;5.70;99.90;;;;;;5008242;28;20639;-77
2021/01/08 06:04:27;;;;;;;2.10;1.20;;;5.70;99.90;;;;;;5010011;28;20283;-77
2021/01/08 06:06:54;;;;;;;4.03;1.20;;;5.70;99.90;;;;;;5010176;28;20197;-77
2021/01/08 06:09:22;;;;;;;2.72;1.15;;;5.70;99.90;;;;;;5010092;28;20201;-77
2021/01/08 06:11:50;;;;;;;1.80;1.10;;;5.70;99.90;;;;;;5009610;28;20215;-77
2021/01/08 06:14:17;;;;;;;2.15;1.20;;;5.70;99.90;;;;;;5007495;28;20584;-77
2021/01/08 06:16:46;;;;;;;1.77;1.10;;;5.70;99.90;;;;;;5011194;28;20184;-77
2021/01/08 06:19:14;;;;;;;2.42;1.15;;;5.70;99.90;;;;;;5009868;28;20206;-78
2021/01/08 06:21:45;;;;;;;4.68;1.23;;;5.70;99.90;;;;;;5011929;28;20279;-77
2021/01/08 06:24:14;;;;;;;5.47;3.85;;;5.70;99.90;;;;;;5009296;28;20239;-77
2021/01/08 06:26:41;;;;;;;3.78;2.20;;;5.70;99.90;;;;;;5010216;28;20224;-78
2021/01/08 06:29:17;;;;;;;2.78;1.30;;;5.70;99.90;;;;;;5013292;28;20283;-78
2021/01/08 06:31:47;;;;;;;3.58;1.20;;;5.60;99.90;;;;;;5013322;28;20203;-78
2021/01/08 06:34:22;;;;;;;5.03;1.40;;;5.70;99.90;;;;;;5012949;28;20554;-84
2021/01/08 06:37:06;;;;;;;6.07;1.20;;;5.70;99.90;;;;;;5014880;28;20216;-80
2021/01/08 06:39:35;;;;;;;2.22;1.45;;;5.60;99.90;;;;;;5012151;28;20218;-81
2021/01/08 06:42:02;;;;;;;2.38;1.52;;;5.60;99.90;;;;;;5013609;28;20228;-80
2021/01/08 06:44:30;;;;;;;2.58;1.40;;;5.60;99.90;;;;;;5013443;28;20207;-80
2021/01/08 06:46:58;;;;;;;2.97;1.25;;;5.60;99.90;;;;;;5015046;28;20612;-87
2021/01/08 06:49:25;;;;;;;3.67;1.52;;;5.60;99.90;;;;;;5012157;28;20267;-79
2021/01/08 06:51:52;;;;;;;3.78;1.60;;;5.60;99.90;;;;;;5014036;28;20299;-80
2021/01/08 06:54:18;;;;;;;6.38;1.80;;;5.60;99.90;;;;;;5012453;28;20212;-80
2021/01/08 06:56:46;;;;;;;3.60;1.75;;;5.60;99.90;;;;;;5012771;28;20204;-81
2021/01/08 06:59:16;;;;;;;2.55;1.42;;;5.60;99.90;;;;;;5011760;28;20200;-79
2021/01/08 07:01:52;;;;;;;4.38;1.63;;;5.60;99.90;;;;;;5014981;28;20188;-80
2021/01/08 07:04:20;;;;;;;4.38;1.80;;;5.60;99.90;;;;;;5014371;28;20210;-79
2021/01/08 07:06:47;;;;;;;4.65;2.22;;;5.60;99.90;;;;;;5013289;28;20243;-79
2021/01/08 07:09:14;;;;;;;7.05;4.28;;;5.60;99.90;;;;;;5013417;28;20208;-79
2021/01/08 07:11:41;;;;;;;6.32;3.65;;;5.60;99.90;;;;;;5013392;28;20228;-78
2021/01/08 07:14:14;;;;;;;5.13;2.40;;;5.60;99.90;;;;;;5014888;28;20223;-79
2021/01/08 07:16:43;;;;;;;6.88;2.22;;;5.60;99.90;;;;;;5017938;28;20259;-80
2021/01/08 07:19:10;;;;;;;5.32;2.33;;;5.60;99.90;;;;;;5019159;28;20189;-79
2021/01/08 07:21:45;;;;;;;4.63;2.15;;;5.60;99.90;;;;;;5014774;28;20269;-78
2021/01/08 07:24:12;;;;;;;8.30;2.30;;;5.60;99.90;;;;;;5017147;28;20204;-79
2021/01/08 07:26:39;;;;;;;9.00;2.35;;;5.60;99.90;;;;;;5016100;28;20216;-79
2021/01/08 07:29:07;;;;;;;6.30;2.22;;;5.60;99.90;;;;;;5015194;28;20201;-81
2021/01/08 07:31:35;;;;;;;5.00;1.88;;;5.60;99.90;;;;;;5013932;28;20204;-80
2021/01/08 07:34:04;;;;;;;7.97;2.00;;;5.60;99.90;;;;;;5016812;28;20704;-78
2021/01/08 07:36:32;;;;;;;3.03;1.90;;;5.60;99.90;;;;;;5015306;28;20905;-77
2021/01/08 07:39:00;;;;;;;3.28;1.80;;;5.60;99.90;;;;;;5013797;28;20903;-77
2021/01/08 07:41:37;;;;;;;4.38;1.77;;;5.50;99.90;;;;;;5011592;28;20201;-78
2021/01/08 07:44:25;;;;;;;2.85;1.60;;;5.60;99.90;;;;;;5013302;28;20312;-77
2021/01/08 07:46:53;;;;;;;3.50;1.98;;;5.60;99.90;;;;;;5011817;28;20220;-80
2021/01/08 07:49:28;;;;;;;9.77;2.17;;;5.60;99.90;;;;;;5013256;28;20913;-77
2021/01/08 07:51:54;;;;;;;2.70;1.88;;;5.60;99.90;;;;;;5013601;28;20208;-78
2021/01/08 07:54:52;;;;;;;3.40;2.15;;;5.50;99.90;;;;;;5013108;28;20538;-78
2021/01/08 07:57:19;;;;;;;4.35;2.35;;;5.50;99.90;;;;;;5011237;28;20224;-79
2021/01/08 07:59:45;;;;;;;5.57;1.92;;;5.50;99.90;;;;;;5012662;28;20204;-77
2021/01/08 08:02:12;;;;;;;6.57;2.40;;;5.50;99.90;;;;;;5014434;28;20212;-79
2021/01/08 08:04:39;;;;;;;5.15;2.70;;;5.50;99.90;;;;;;5016999;28;20247;-82
2021/01/08 08:07:05;;;;;;;5.00;2.20;;;5.40;99.90;;;;;;5013287;28;20295;-81
2021/01/08 08:09:32;;;;;;;4.60;2.05;;;5.50;99.90;;;;;;5013385;28;20726;-79
2021/01/08 08:11:59;;;;;;;3.83;1.83;;;5.40;99.90;;;;;;5010880;28;20249;-79
2021/01/08 08:14:25;;;;;;;2.60;1.63;;;5.40;99.90;;;;;;5009699;28;20220;-79
2021/01/08 08:16:52;;;;;;;6.75;2.40;;;5.50;99.90;;;;;;5027109;28;20205;-78
2021/01/08 08:19:19;;;;;;;2.65;1.70;;;5.40;99.90;;;;;;5006314;28;20220;-78
2021/01/08 08:21:47;;;;;;;4.07;1.40;;;5.40;99.90;;;;;;5011941;28;20200;-79
2021/01/08 08:24:16;;;;;;;3.30;1.67;;;5.50;99.90;;;;;;5009408;28;20219;-78
2021/01/08 08:26:43;;;;;;;4.93;1.88;;;5.40;99.90;;;;;;5012243;28;20231;-77
2021/01/08 08:29:11;;;;;;;3.72;1.67;;;5.50;99.90;;;;;;5011232;28;20215;-78
2021/01/08 08:31:39;;;;;;;3.70;1.80;;;5.50;99.90;;;;;;5011003;28;20208;-78
2021/01/08 08:34:08;;;;;;;3.95;1.67;;;5.50;99.90;;;;;;5011716;28;20274;-81
2021/01/08 08:36:36;;;;;;;3.88;1.80;;;5.50;99.90;;;;;;5010776;28;20196;-80
2021/01/08 08:39:06;;;;;;;5.35;2.40;;;5.50;99.90;;;;;;5012664;28;20262;-79
2021/01/08 08:41:33;;;;;;;5.85;2.13;;;5.50;99.90;;;;;;5012501;28;20209;-81
2021/01/08 08:44:01;;;;;;;3.72;1.48;;;5.50;99.90;;;;;;5011154;28;20303;-78
2021/01/08 08:46:41;;;;;;;4.10;1.70;;;5.50;99.90;;;;;;5010563;28;20228;-78
2021/01/08 08:49:10;;;;;;;2.78;1.75;;;5.50;99.90;;;;;;5012161;28;20258;-79
2021/01/08 08:51:40;;;;;;;5.22;1.60;;;5.50;99.90;;;;;;5011185;28;20223;-77
2021/01/08 08:54:07;;;;;;;3.40;1.58;;;5.50;99.90;;;;;;5008085;28;20234;-78
2021/01/08 08:56:33;;;;;;;5.22;1.60;;;5.50;99.90;;;;;;5010230;28;20196;-79
2021/01/08 08:59:00;;;;;;;3.65;2.30;;;5.50;99.90;;;;;;5012571;28;20621;-81
2021/01/08 09:01:38;;;;;;;4.30;2.40;;;5.50;99.90;;;;;;5011284;28;20203;-78
2021/01/08 09:04:05;;;;;;;6.00;2.50;;;5.50;99.90;;;;;;5009641;28;20215;-78
2021/01/08 09:06:37;;;;;;;4.50;2.78;;;5.60;99.90;;;;;;5012819;28;20271;-79
2021/01/08 09:09:14;;;;;;;5.07;2.47;;;5.60;99.90;;;;;;5011071;28;20582;-78
2021/01/08 09:11:49;;;;;;;6.10;2.60;;;5.60;99.90;;;;;;5012377;28;20203;-79
2021/01/08 09:14:20;;;;;;;4.18;2.55;;;5.60;99.90;;;;;;5011162;28;20828;-80
2021/01/08 09:16:51;;;;;;;3.33;2.10;;;5.60;99.90;;;;;;5012041;28;20420;-80
2021/01/08 09:19:21;;;;;;;3.83;2.60;;;5.60;99.90;;;;;;5011010;28;20286;-80
2021/01/08 09:21:49;;;;;;;7.82;2.30;;;5.70;99.90;;;;;;5012648;28;20208;-78
2021/01/08 09:24:21;;;;;;;4.10;2.35;;;5.70;99.90;;;;;;5010335;28;20251;-81
2021/01/08 09:26:49;;;;;;;6.03;2.88;;;5.70;99.90;;;;;;5012885;28;20274;-81
2021/01/08 09:29:28;;;;;;;3.15;2.28;;;5.70;99.90;;;;;;5010447;28;20653;-82
2021/01/08 09:31:55;;;;;;;4.90;2.20;;;5.70;99.90;;;;;;5011667;28;20298;-81
2021/01/08 09:34:23;;;;;;;4.90;2.13;;;5.70;99.90;;;;;;5012022;28;20243;-81
2021/01/08 09:36:50;;;;;;;4.50;2.10;;;5.70;99.90;;;;;;5011539;28;20965;-81
2021/01/08 09:39:18;;;;;;;3.00;1.88;;;5.70;99.90;;;;;;5008711;28;20209;-78
2021/01/08 09:41:45;;;;;;;5.88;2.10;;;5.80;99.90;;;;;;5009387;28;20208;-79
2021/01/08 09:44:13;;;;;;;3.00;2.08;;;5.70;99.90;;;;;;5010603;28;21060;-77
2021/01/08 09:46:53;;;;;;;5.22;2.13;;;5.80;99.90;;;;;;5008742;28;20216;-79
2021/01/08 09:49:19;;;;;;;3.55;2.05;;;5.80;99.90;;;;;;5010017;28;20204;-80
2021/01/08 09:51:46;;;;;;;1.95;1.58;;;5.80;99.90;;;;;;5011487;28;20192;-78
2021/01/08 09:54:12;;;;;;;3.92;1.92;;;5.80;99.90;;;;;;5011178;28;20209;-78
2021/01/08 09:56:41;;;;;;;3.25;2.30;;;5.80;99.90;;;;;;5011938;28;20196;-78
2021/01/08 09:59:13;;;;;;;2.85;2.00;;;5.80;99.90;;;;;;5009168;28;20219;-79
2021/01/08 10:01:52;;;;;;;3.10;2.00;;;5.80;99.90;;;;;;5011977;28;20696;-79
2021/01/08 10:04:28;;;;;;;5.47;2.13;;;5.80;99.90;;;;;;5009290;28;20205;-76
2021/01/08 10:06:59;;;;;;;5.97;2.10;;;5.80;99.90;;;;;;5009926;28;20688;-77
2021/01/08 10:09:25;;;;;;;3.13;2.00;;;5.80;99.90;;;;;;5007487;28;20216;-78
2021/01/08 10:12:00;;;;;;;2.80;1.90;;;5.90;99.90;;;;;;5011169;28;20200;-78
2021/01/08 10:14:31;;;;;;;3.60;1.60;;;5.90;99.90;;;;;;5009841;28;20208;-77
2021/01/08 10:17:12;;;;;;;4.15;1.95;;;5.90;99.90;;;;;;5011425;28;20278;-78
2021/01/08 10:19:40;;;;;;;4.40;1.85;;;5.90;99.90;;;;;;5008164;28;20235;-77
2021/01/08 10:22:06;;;;;;;4.97;1.85;;;6.00;99.90;;;;;;5009691;28;20196;-78
2021/01/08 10:24:33;;;;;;;2.03;1.73;;;6.00;99.90;;;;;;5009641;28;20204;-77
2021/01/08 10:27:00;;;;;;;4.43;1.77;;;6.00;99.90;;;;;;5008052;28;20232;-78
2021/01/08 10:29:31;;;;;;;2.42;1.80;;;6.00;99.90;;;;;;5010235;28;20618;-78
2021/01/08 10:31:57;;;;;;;2.88;1.92;;;6.00;99.90;;;;;;5011210;28;20196;-77
2021/01/08 10:34:24;;;;;;;2.40;1.73;;;6.10;99.90;;;;;;5010326;28;20232;-77
2021/01/08 10:36:51;;;;;;;2.40;1.88;;;6.10;99.90;;;;;;5009764;28;20215;-78
2021/01/08 10:39:17;;;;;;;7.18;1.65;;;6.10;99.90;;;;;;5008697;28;20197;-77
2021/01/08 10:41:43;;;;;;;3.45;1.90;;;6.10;99.90;;;;;;5010614;28;20267;-78
2021/01/08 10:44:10;;;;;;;2.58;1.73;;;6.10;99.90;;;;;;5009604;28;20205;-79
2021/01/08 10:46:38;;;;;;;3.35;1.77;;;6.10;99.90;;;;;;5009638;28;20216;-79
2021/01/08 10:49:06;;;;;;;3.55;1.92;;;6.10;99.90;;;;;;5009233;28;20196;-77
2021/01/08 10:51:32;;;;;;;4.50;2.17;;;6.10;99.90;;;;;;5009583;28;20662;-78
2021/01/08 10:53:59;;;;;;;4.18;2.53;;;6.10;99.90;;;;;;5009710;28;20671;-78
2021/01/08 10:56:28;;;;;;;3.80;1.90;;;6.20;99.90;;;;;;5009943;28;21119;-78
2021/01/08 10:58:55;;;;;;;5.63;2.15;;;6.20;99.90;;;;;;5009294;28;20607;-78
2021/01/08 11:01:22;;;;;;;4.85;1.77;;;6.20;99.90;;;;;;5009690;28;20211;-78
2021/01/08 11:03:48;;;;;;;2.72;1.60;;;6.20;99.90;;;;;;5009100;28;20629;-77
2021/01/08 11:06:19;;;;;;;4.10;2.00;;;6.20;99.90;;;;;;5010324;28;20235;-78
2021/01/08 11:08:45;;;;;;;3.80;2.10;;;6.20;99.90;;;;;;5007528;28;20209;-77
2021/01/08 11:11:14;;;;;;;3.65;1.85;;;6.20;99.90;;;;;;5007901;28;20204;-78
2021/01/08 11:13:40;;;;;;;2.28;2.00;;;6.10;99.90;;;;;;5008444;28;20204;-77
2021/01/08 11:16:07;;;;;;;6.30;2.42;;;6.10;99.90;;;;;;5012757;28;20203;-78
2021/01/08 11:18:35;;;;;;;4.22;2.38;;;6.10;99.90;;;;;;5011993;28;20213;-78
2021/01/08 11:21:01;;;;;;;5.25;2.40;;;6.10;99.90;;;;;;5013579;28;20956;-78
2021/01/08 11:23:27;;;;;;;4.78;2.80;;;6.20;99.90;;;;;;5012748;28;20231;-77
2021/01/08 11:25:54;;;;;;;4.40;3.03;;;6.20;99.90;;;;;;5013104;28;20215;-78
2021/01/08 11:28:20;;;;;;;4.97;3.05;;;6.20;99.90;;;;;;5012500;28;20201;-77
2021/01/08 11:30:48;;;;;;;3.63;2.88;;;6.20;99.90;;;;;;5013913;28;20953;-77
2021/01/08 11:33:15;;;;;;;3.55;2.83;;;6.30;99.90;;;;;;5011670;28;20259;-78
2021/01/08 11:35:42;;;;;;;6.57;2.70;;;6.30;99.90;;;;;;5012191;28;20503;-78
2021/01/08 11:38:08;;;;;;;4.47;2.53;;;6.30;99.90;;;;;;5012392;28;20209;-77
2021/01/08 11:40:35;;;;;;;3.67;2.60;;;6.30;99.90;;;;;;5008524;28;20599;-77
2021/01/08 11:43:01;;;;;;;4.97;3.00;;;6.30;99.90;;;;;;5011762;28;20279;-78
2021/01/08 11:45:27;;;;;;;3.85;2.90;;;6.30;99.90;;;;;;5013982;28;20227;-77
2021/01/08 11:47:54;;;;;;;3.15;2.85;;;6.40;99.90;;;;;;5010845;28;20205;-78
2021/01/08 11:50:20;;;;;;;4.35;3.60;;;6.40;99.90;;;;;;5013524;28;20203;-77
2021/01/08 11:52:47;;;;;;;4.40;3.50;;;6.40;99.90;;;;;;5011901;28;20263;-77
2021/01/08 11:55:13;;;;;;;6.00;4.50;;;6.40;99.90;;;;;;5012166;28;20201;-78
2021/01/08 11:57:40;;;;;;;4.72;3.45;;;6.40;99.90;;;;;;5011604;28;20197;-77
2021/01/08 12:00:08;;;;;;;4.55;3.03;;;6.50;99.90;;;;;;5013453;28;20197;-77
2021/01/08 12:02:39;;;;;;;3.25;2.95;;;6.50;99.90;;;;;;5011089;28;20282;-77
2021/01/08 12:05:06;;;;;;;3.33;2.90;;;6.50;99.90;;;;;;5010776;28;20208;-78
2021/01/08 12:07:33;;;;;;;4.90;3.60;;;6.60;99.90;;;;;;5010040;28;20586;-77
2021/01/08 12:10:00;;;;;;;4.53;3.05;;;6.60;99.90;;;;;;5012597;28;20213;-78
2021/01/08 12:12:26;;;;;;;6.63;3.80;;;6.60;99.90;;;;;;5010550;28;20199;-77
2021/01/08 12:14:53;;;;;;;4.05;3.38;;;6.60;99.90;;;;;;5010222;28;20212;-78
2021/01/08 12:17:19;;;;;;;5.65;4.32;;;6.60;99.90;;;;;;5011875;28;20206;-77
2021/01/08 12:19:46;;;;;;;5.03;3.78;;;6.70;99.90;;;;;;5012566;28;20201;-77
2021/01/08 12:22:12;;;;;;;3.75;2.90;;;6.70;99.90;;;;;;5011264;28;20562;-77
2021/01/08 12:24:39;;;;;;;4.85;3.28;;;6.70;99.90;;;;;;5011598;28;20212;-78
2021/01/08 12:27:07;;;;;;;5.25;3.28;;;6.80;99.90;;;;;;5011153;28;20231;-77
2021/01/08 12:29:34;;;;;;;4.00;2.95;;;6.80;99.90;;;;;;5007685;28;20208;-76
2021/01/08 12:32:01;;;;;;;3.95;3.03;;;6.80;99.90;;;;;;5011289;28;20215;-76
2021/01/08 12:34:27;;;;;;;5.00;3.45;;;6.90;99.90;;;;;;5012168;28;20352;-77
2021/01/08 12:36:54;;;;;;;4.78;3.28;;;6.90;99.90;;;;;;5012863;28;20216;-78
2021/01/08 12:39:21;;;;;;;4.75;3.72;;;7.00;99.90;;;;;;5010015;28;20707;-78
2021/01/08 12:41:47;;;;;;;4.70;3.53;;;7.00;99.90;;;;;;5011333;28;20282;-78
2021/01/08 12:44:14;;;;;;;5.70;2.75;;;7.10;99.90;;;;;;5011688;28;20215;-78
2021/01/08 12:46:41;;;;;;;4.25;2.88;;;7.10;99.90;;;;;;5011448;28;20228;-78
2021/01/08 12:49:08;;;;;;;2.80;2.38;;;7.20;99.90;;;;;;5011291;28;20206;-78
2021/01/08 12:51:35;;;;;;;3.97;3.47;;;7.30;99.90;;;;;;5012335;28;20723;-78
2021/01/08 12:54:01;;;;;;;4.72;4.22;;;7.30;99.90;;;;;;5010510;28;20196;-77
2021/01/08 12:56:28;;;;;;;4.90;3.85;;;7.30;99.90;;;;;;5012308;28;20211;-77
2021/01/08 12:58:55;;;;;;;4.72;3.88;;;7.30;99.90;;;;;;5010417;28;20207;-76
2021/01/08 13:01:22;;;;;;;4.60;3.90;;;7.30;99.90;;;;;;5011250;28;20622;-77